sensor_id;sensor_type;location;lat;lon;timestamp;P1;durP1;ratioP1;P2;durP2;ratioP2
28431;SDS011;15664;51.302;7.744;2023-05-07T00:00:54;6.80;;;2.40;;
28431;SDS011;15664;51.302;7.744;2023-05-07T00:03:20;5.77;;;2.30;;
28431;SDS011;15664;51.302;7.744;2023-05-07T00:05:46;6.05;;;2.70;;
28431;SDS011;15664;51.302;7.744;2023-05-07T00:08:12;7.60;;;2.63;;
28431;SDS011;15664;51.302;7.744;2023-05-07T00:10:38;4.50;;;2.20;;
28431;SDS011;15664;51.302;7.744;2023-05-07T00:13:03;5.80;;;2.60;;
28431;SDS011;15664;51.302;7.744;2023-05-07T00:15:29;6.50;;;2.30;;
28431;SDS011;15664;51.302;7.744;2023-05-07T00:17:55;3.77;;;1.90;;
28431;SDS011;15664;51.302;7.744;2023-05-07T00:20:20;4.78;;;2.00;;
28431;SDS011;15664;51.302;7.744;2023-05-07T00:22:45;4.30;;;1.90;;
28431;SDS011;15664;51.302;7.744;2023-05-07T00:25:11;6.73;;;1.93;;
28431;SDS011;15664;51.302;7.744;2023-05-07T00:27:36;5.40;;;2.17;;
28431;SDS011;15664;51.302;7.744;2023-05-07T00:30:02;5.00;;;2.17;;
28431;SDS011;15664;51.302;7.744;2023-05-07T00:32:27;7.33;;;2.43;;
28431;SDS011;15664;51.302;7.744;2023-05-07T00:34:52;7.93;;;2.57;;
28431;SDS011;15664;51.302;7.744;2023-05-07T00:37:18;7.50;;;2.42;;
28431;SDS011;15664;51.302;7.744;2023-05-07T00:39:44;5.43;;;2.40;;
28431;SDS011;15664;51.302;7.744;2023-05-07T00:42:09;4.33;;;1.77;;
28431;SDS011;15664;51.302;7.744;2023-05-07T00:44:35;5.60;;;2.10;;
28431;SDS011;15664;51.302;7.744;2023-05-07T00:47:01;5.07;;;2.40;;
28431;SDS011;15664;51.302;7.744;2023-05-07T00:49:32;5.80;;;2.07;;
28431;SDS011;15664;51.302;7.744;2023-05-07T00:51:58;5.15;;;2.00;;
28431;SDS011;15664;51.302;7.744;2023-05-07T00:54:25;5.55;;;2.20;;
28431;SDS011;15664;51.302;7.744;2023-05-07T00:56:51;5.43;;;2.40;;
28431;SDS011;15664;51.302;7.744;2023-05-07T00:59:17;4.82;;;2.35;;
28431;SDS011;15664;51.302;7.744;2023-05-07T01:01:42;4.90;;;2.30;;
28431;SDS011;15664;51.302;7.744;2023-05-07T01:04:08;5.63;;;2.53;;
28431;SDS011;15664;51.302;7.744;2023-05-07T01:06:33;4.13;;;2.20;;
28431;SDS011;15664;51.302;7.744;2023-05-07T01:08:59;5.15;;;2.00;;
28431;SDS011;15664;51.302;7.744;2023-05-07T01:11:25;4.95;;;2.25;;
28431;SDS011;15664;51.302;7.744;2023-05-07T01:13:51;4.07;;;1.83;;
28431;SDS011;15664;51.302;7.744;2023-05-07T01:16:17;6.15;;;2.00;;
28431;SDS011;15664;51.302;7.744;2023-05-07T01:18:43;4.00;;;1.63;;
28431;SDS011;15664;51.302;7.744;2023-05-07T01:21:08;4.80;;;2.17;;
28431;SDS011;15664;51.302;7.744;2023-05-07T01:23:35;4.45;;;2.05;;
28431;SDS011;15664;51.302;7.744;2023-05-07T01:26:01;4.57;;;2.00;;
28431;SDS011;15664;51.302;7.744;2023-05-07T01:28:29;4.03;;;1.83;;
28431;SDS011;15664;51.302;7.744;2023-05-07T01:31:01;8.23;;;1.83;;
28431;SDS011;15664;51.302;7.744;2023-05-07T01:33:28;7.67;;;2.10;;
28431;SDS011;15664;51.302;7.744;2023-05-07T01:35:54;3.90;;;1.92;;
28431;SDS011;15664;51.302;7.744;2023-05-07T01:38:21;6.03;;;1.88;;
28431;SDS011;15664;51.302;7.744;2023-05-07T01:40:47;7.07;;;1.83;;
28431;SDS011;15664;51.302;7.744;2023-05-07T01:43:13;4.73;;;1.90;;
28431;SDS011;15664;51.302;7.744;2023-05-07T01:45:38;4.38;;;2.00;;
28431;SDS011;15664;51.302;7.744;2023-05-07T01:48:05;5.22;;;2.10;;
28431;SDS011;15664;51.302;7.744;2023-05-07T01:50:31;4.10;;;2.00;;
28431;SDS011;15664;51.302;7.744;2023-05-07T01:52:57;5.32;;;2.05;;
28431;SDS011;15664;51.302;7.744;2023-05-07T01:55:23;4.20;;;2.00;;
28431;SDS011;15664;51.302;7.744;2023-05-07T01:57:49;4.77;;;2.23;;
28431;SDS011;15664;51.302;7.744;2023-05-07T02:00:14;6.00;;;2.00;;
28431;SDS011;15664;51.302;7.744;2023-05-07T02:02:43;5.32;;;2.20;;
28431;SDS011;15664;51.302;7.744;2023-05-07T02:05:20;5.13;;;1.90;;
28431;SDS011;15664;51.302;7.744;2023-05-07T02:07:49;4.43;;;2.00;;
28431;SDS011;15664;51.302;7.744;2023-05-07T02:10:16;5.68;;;1.80;;
28431;SDS011;15664;51.302;7.744;2023-05-07T02:12:41;4.07;;;2.13;;
28431;SDS011;15664;51.302;7.744;2023-05-07T02:15:08;5.53;;;2.00;;
28431;SDS011;15664;51.302;7.744;2023-05-07T02:17:34;11.02;;;2.83;;
28431;SDS011;15664;51.302;7.744;2023-05-07T02:20:00;6.07;;;2.78;;
28431;SDS011;15664;51.302;7.744;2023-05-07T02:22:25;5.30;;;2.35;;
28431;SDS011;15664;51.302;7.744;2023-05-07T02:24:51;4.23;;;2.07;;
28431;SDS011;15664;51.302;7.744;2023-05-07T02:27:16;6.47;;;2.20;;
28431;SDS011;15664;51.302;7.744;2023-05-07T02:29:43;4.50;;;2.03;;
28431;SDS011;15664;51.302;7.744;2023-05-07T02:32:09;4.90;;;2.20;;
28431;SDS011;15664;51.302;7.744;2023-05-07T02:34:34;3.87;;;1.80;;
28431;SDS011;15664;51.302;7.744;2023-05-07T02:36:59;6.57;;;2.10;;
28431;SDS011;15664;51.302;7.744;2023-05-07T02:39:25;4.68;;;2.17;;
28431;SDS011;15664;51.302;7.744;2023-05-07T02:41:51;6.53;;;2.30;;
28431;SDS011;15664;51.302;7.744;2023-05-07T02:44:16;8.88;;;1.73;;
28431;SDS011;15664;51.302;7.744;2023-05-07T02:46:43;4.37;;;1.87;;
28431;SDS011;15664;51.302;7.744;2023-05-07T02:49:11;6.45;;;2.13;;
28431;SDS011;15664;51.302;7.744;2023-05-07T02:51:36;8.60;;;2.33;;
28431;SDS011;15664;51.302;7.744;2023-05-07T02:54:07;3.63;;;1.80;;
28431;SDS011;15664;51.302;7.744;2023-05-07T02:56:33;5.00;;;2.17;;
28431;SDS011;15664;51.302;7.744;2023-05-07T02:58:58;6.90;;;2.37;;
28431;SDS011;15664;51.302;7.744;2023-05-07T03:01:27;5.97;;;2.53;;
28431;SDS011;15664;51.302;7.744;2023-05-07T03:04:00;5.95;;;1.83;;
28431;SDS011;15664;51.302;7.744;2023-05-07T03:06:25;5.37;;;2.20;;
28431;SDS011;15664;51.302;7.744;2023-05-07T03:08:51;6.53;;;2.10;;
28431;SDS011;15664;51.302;7.744;2023-05-07T03:11:17;5.10;;;2.00;;
28431;SDS011;15664;51.302;7.744;2023-05-07T03:13:42;5.22;;;2.33;;
28431;SDS011;15664;51.302;7.744;2023-05-07T03:16:07;6.13;;;2.00;;
28431;SDS011;15664;51.302;7.744;2023-05-07T03:18:33;9.10;;;2.17;;
28431;SDS011;15664;51.302;7.744;2023-05-07T03:20:58;4.77;;;1.70;;
28431;SDS011;15664;51.302;7.744;2023-05-07T03:23:24;4.90;;;2.10;;
28431;SDS011;15664;51.302;7.744;2023-05-07T03:25:49;5.03;;;2.20;;
28431;SDS011;15664;51.302;7.744;2023-05-07T03:28:15;4.90;;;1.90;;
28431;SDS011;15664;51.302;7.744;2023-05-07T03:30:49;4.35;;;2.10;;
28431;SDS011;15664;51.302;7.744;2023-05-07T03:33:14;9.87;;;2.43;;
28431;SDS011;15664;51.302;7.744;2023-05-07T03:35:40;5.05;;;2.08;;
28431;SDS011;15664;51.302;7.744;2023-05-07T03:38:05;7.70;;;2.00;;
28431;SDS011;15664;51.302;7.744;2023-05-07T03:40:34;5.65;;;2.20;;
28431;SDS011;15664;51.302;7.744;2023-05-07T03:43:01;6.70;;;2.08;;
28431;SDS011;15664;51.302;7.744;2023-05-07T03:45:28;4.30;;;1.93;;
28431;SDS011;15664;51.302;7.744;2023-05-07T03:48:04;4.82;;;2.10;;
28431;SDS011;15664;51.302;7.744;2023-05-07T03:50:30;4.93;;;2.00;;
28431;SDS011;15664;51.302;7.744;2023-05-07T03:52:55;5.00;;;1.90;;
28431;SDS011;15664;51.302;7.744;2023-05-07T03:55:22;6.15;;;2.20;;
28431;SDS011;15664;51.302;7.744;2023-05-07T03:57:52;5.30;;;2.30;;
28431;SDS011;15664;51.302;7.744;2023-05-07T04:00:19;5.37;;;2.13;;
28431;SDS011;15664;51.302;7.744;2023-05-07T04:02:48;4.68;;;1.90;;
28431;SDS011;15664;51.302;7.744;2023-05-07T04:05:19;5.00;;;1.95;;
28431;SDS011;15664;51.302;7.744;2023-05-07T04:07:48;5.25;;;2.30;;
28431;SDS011;15664;51.302;7.744;2023-05-07T04:10:18;5.57;;;2.25;;
28431;SDS011;15664;51.302;7.744;2023-05-07T04:12:45;5.93;;;2.20;;
28431;SDS011;15664;51.302;7.744;2023-05-07T04:15:15;4.60;;;2.20;;
28431;SDS011;15664;51.302;7.744;2023-05-07T04:17:41;4.47;;;2.25;;
28431;SDS011;15664;51.302;7.744;2023-05-07T04:20:10;4.60;;;2.47;;
28431;SDS011;15664;51.302;7.744;2023-05-07T04:22:36;5.15;;;2.28;;
28431;SDS011;15664;51.302;7.744;2023-05-07T04:25:03;6.55;;;2.70;;
28431;SDS011;15664;51.302;7.744;2023-05-07T04:27:29;5.57;;;2.50;;
28431;SDS011;15664;51.302;7.744;2023-05-07T04:29:55;6.32;;;2.65;;
28431;SDS011;15664;51.302;7.744;2023-05-07T04:32:24;7.60;;;3.10;;
28431;SDS011;15664;51.302;7.744;2023-05-07T04:34:51;5.85;;;2.70;;
28431;SDS011;15664;51.302;7.744;2023-05-07T04:37:17;5.18;;;2.50;;
28431;SDS011;15664;51.302;7.744;2023-05-07T04:39:43;6.35;;;2.90;;
28431;SDS011;15664;51.302;7.744;2023-05-07T04:42:09;5.47;;;2.53;;
28431;SDS011;15664;51.302;7.744;2023-05-07T04:44:35;7.28;;;2.88;;
28431;SDS011;15664;51.302;7.744;2023-05-07T04:47:02;5.93;;;2.67;;
28431;SDS011;15664;51.302;7.744;2023-05-07T04:49:28;6.37;;;2.73;;
28431;SDS011;15664;51.302;7.744;2023-05-07T04:51:54;4.70;;;2.22;;
28431;SDS011;15664;51.302;7.744;2023-05-07T04:54:22;9.70;;;2.78;;
28431;SDS011;15664;51.302;7.744;2023-05-07T04:56:48;7.77;;;2.50;;
28431;SDS011;15664;51.302;7.744;2023-05-07T04:59:13;5.90;;;2.80;;
28431;SDS011;15664;51.302;7.744;2023-05-07T05:01:39;7.53;;;2.27;;
28431;SDS011;15664;51.302;7.744;2023-05-07T05:04:06;4.78;;;2.20;;
28431;SDS011;15664;51.302;7.744;2023-05-07T05:06:31;4.93;;;2.30;;
28431;SDS011;15664;51.302;7.744;2023-05-07T05:08:58;5.72;;;2.30;;
28431;SDS011;15664;51.302;7.744;2023-05-07T05:11:25;5.38;;;2.05;;
28431;SDS011;15664;51.302;7.744;2023-05-07T05:13:50;4.77;;;2.07;;
28431;SDS011;15664;51.302;7.744;2023-05-07T05:16:19;5.80;;;2.20;;
28431;SDS011;15664;51.302;7.744;2023-05-07T05:18:44;4.33;;;2.20;;
28431;SDS011;15664;51.302;7.744;2023-05-07T05:21:12;5.93;;;2.17;;
28431;SDS011;15664;51.302;7.744;2023-05-07T05:23:38;6.00;;;2.00;;
28431;SDS011;15664;51.302;7.744;2023-05-07T05:26:04;4.03;;;1.70;;
28431;SDS011;15664;51.302;7.744;2023-05-07T05:28:32;4.72;;;2.00;;
28431;SDS011;15664;51.302;7.744;2023-05-07T05:30:57;8.90;;;2.57;;
28431;SDS011;15664;51.302;7.744;2023-05-07T05:33:25;4.90;;;2.08;;
28431;SDS011;15664;51.302;7.744;2023-05-07T05:35:51;6.60;;;2.03;;
28431;SDS011;15664;51.302;7.744;2023-05-07T05:38:16;5.37;;;2.50;;
28431;SDS011;15664;51.302;7.744;2023-05-07T05:40:41;6.23;;;1.90;;
28431;SDS011;15664;51.302;7.744;2023-05-07T05:43:07;4.22;;;1.70;;
28431;SDS011;15664;51.302;7.744;2023-05-07T05:45:33;4.57;;;2.27;;
28431;SDS011;15664;51.302;7.744;2023-05-07T05:47:59;5.30;;;1.92;;
28431;SDS011;15664;51.302;7.744;2023-05-07T05:50:24;5.80;;;2.23;;
28431;SDS011;15664;51.302;7.744;2023-05-07T05:52:51;6.45;;;2.28;;
28431;SDS011;15664;51.302;7.744;2023-05-07T05:55:17;6.13;;;2.20;;
28431;SDS011;15664;51.302;7.744;2023-05-07T05:57:43;5.20;;;2.23;;
28431;SDS011;15664;51.302;7.744;2023-05-07T06:00:09;4.95;;;2.42;;
28431;SDS011;15664;51.302;7.744;2023-05-07T06:02:43;4.23;;;1.97;;
28431;SDS011;15664;51.302;7.744;2023-05-07T06:05:10;7.50;;;2.10;;
28431;SDS011;15664;51.302;7.744;2023-05-07T06:07:35;4.07;;;1.75;;
28431;SDS011;15664;51.302;7.744;2023-05-07T06:10:01;5.73;;;2.07;;
28431;SDS011;15664;51.302;7.744;2023-05-07T06:12:28;5.00;;;2.00;;
28431;SDS011;15664;51.302;7.744;2023-05-07T06:14:54;4.45;;;1.83;;
28431;SDS011;15664;51.302;7.744;2023-05-07T06:17:20;5.03;;;2.17;;
28431;SDS011;15664;51.302;7.744;2023-05-07T06:19:45;6.00;;;1.80;;
28431;SDS011;15664;51.302;7.744;2023-05-07T06:22:12;5.15;;;2.10;;
28431;SDS011;15664;51.302;7.744;2023-05-07T06:24:38;5.00;;;2.20;;
28431;SDS011;15664;51.302;7.744;2023-05-07T06:27:05;7.15;;;2.20;;
28431;SDS011;15664;51.302;7.744;2023-05-07T06:29:31;5.88;;;2.00;;
28431;SDS011;15664;51.302;7.744;2023-05-07T06:32:06;5.88;;;2.15;;
28431;SDS011;15664;51.302;7.744;2023-05-07T06:34:32;4.83;;;2.07;;
28431;SDS011;15664;51.302;7.744;2023-05-07T06:36:58;5.28;;;2.22;;
28431;SDS011;15664;51.302;7.744;2023-05-07T06:39:37;6.00;;;2.10;;
28431;SDS011;15664;51.302;7.744;2023-05-07T06:42:02;4.28;;;1.90;;
28431;SDS011;15664;51.302;7.744;2023-05-07T06:44:31;5.23;;;2.13;;
28431;SDS011;15664;51.302;7.744;2023-05-07T06:47:06;3.85;;;1.95;;
28431;SDS011;15664;51.302;7.744;2023-05-07T06:49:32;3.92;;;1.88;;
28431;SDS011;15664;51.302;7.744;2023-05-07T06:51:58;5.75;;;2.38;;
28431;SDS011;15664;51.302;7.744;2023-05-07T06:54:23;4.37;;;1.80;;
28431;SDS011;15664;51.302;7.744;2023-05-07T06:56:49;3.80;;;1.87;;
28431;SDS011;15664;51.302;7.744;2023-05-07T06:59:15;4.35;;;2.00;;
28431;SDS011;15664;51.302;7.744;2023-05-07T07:01:40;4.47;;;1.90;;
28431;SDS011;15664;51.302;7.744;2023-05-07T07:04:07;5.65;;;2.05;;
28431;SDS011;15664;51.302;7.744;2023-05-07T07:06:33;5.30;;;1.90;;
28431;SDS011;15664;51.302;7.744;2023-05-07T07:09:00;4.23;;;1.67;;
28431;SDS011;15664;51.302;7.744;2023-05-07T07:11:26;5.95;;;1.98;;
28431;SDS011;15664;51.302;7.744;2023-05-07T07:13:51;4.40;;;1.80;;
28431;SDS011;15664;51.302;7.744;2023-05-07T07:16:16;5.30;;;2.07;;
28431;SDS011;15664;51.302;7.744;2023-05-07T07:18:43;5.53;;;2.00;;
28431;SDS011;15664;51.302;7.744;2023-05-07T07:21:09;6.23;;;1.80;;
28431;SDS011;15664;51.302;7.744;2023-05-07T07:23:34;4.03;;;1.90;;
28431;SDS011;15664;51.302;7.744;2023-05-07T07:26:00;4.70;;;1.83;;
28431;SDS011;15664;51.302;7.744;2023-05-07T07:28:26;4.25;;;1.90;;
28431;SDS011;15664;51.302;7.744;2023-05-07T07:30:52;4.65;;;1.83;;
28431;SDS011;15664;51.302;7.744;2023-05-07T07:33:17;6.03;;;1.97;;
28431;SDS011;15664;51.302;7.744;2023-05-07T07:35:43;3.77;;;2.00;;
28431;SDS011;15664;51.302;7.744;2023-05-07T07:38:09;4.47;;;1.90;;
28431;SDS011;15664;51.302;7.744;2023-05-07T07:40:34;5.93;;;1.73;;
28431;SDS011;15664;51.302;7.744;2023-05-07T07:43:00;5.35;;;1.80;;
28431;SDS011;15664;51.302;7.744;2023-05-07T07:45:27;4.25;;;1.90;;
28431;SDS011;15664;51.302;7.744;2023-05-07T07:47:52;4.67;;;2.20;;
28431;SDS011;15664;51.302;7.744;2023-05-07T07:50:18;3.75;;;1.63;;
28431;SDS011;15664;51.302;7.744;2023-05-07T07:52:44;4.33;;;2.10;;
28431;SDS011;15664;51.302;7.744;2023-05-07T07:55:12;5.70;;;2.53;;
28431;SDS011;15664;51.302;7.744;2023-05-07T07:57:38;4.80;;;1.90;;
28431;SDS011;15664;51.302;7.744;2023-05-07T08:00:05;3.70;;;1.90;;
28431;SDS011;15664;51.302;7.744;2023-05-07T08:02:41;5.10;;;1.90;;
28431;SDS011;15664;51.302;7.744;2023-05-07T08:05:08;6.82;;;2.05;;
28431;SDS011;15664;51.302;7.744;2023-05-07T08:07:33;5.75;;;2.08;;
28431;SDS011;15664;51.302;7.744;2023-05-07T08:09:59;4.63;;;2.00;;
28431;SDS011;15664;51.302;7.744;2023-05-07T08:12:25;3.78;;;2.00;;
28431;SDS011;15664;51.302;7.744;2023-05-07T08:14:51;3.63;;;1.85;;
28431;SDS011;15664;51.302;7.744;2023-05-07T08:17:17;5.72;;;1.83;;
28431;SDS011;15664;51.302;7.744;2023-05-07T08:19:43;3.80;;;1.75;;
28431;SDS011;15664;51.302;7.744;2023-05-07T08:22:11;3.38;;;1.48;;
28431;SDS011;15664;51.302;7.744;2023-05-07T08:24:37;3.28;;;1.90;;
28431;SDS011;15664;51.302;7.744;2023-05-07T08:27:03;3.70;;;1.80;;
28431;SDS011;15664;51.302;7.744;2023-05-07T08:29:29;4.10;;;1.73;;
28431;SDS011;15664;51.302;7.744;2023-05-07T08:31:55;3.95;;;2.00;;
28431;SDS011;15664;51.302;7.744;2023-05-07T08:34:21;3.03;;;1.70;;
28431;SDS011;15664;51.302;7.744;2023-05-07T08:36:48;5.03;;;1.77;;
28431;SDS011;15664;51.302;7.744;2023-05-07T08:39:16;4.53;;;1.75;;
28431;SDS011;15664;51.302;7.744;2023-05-07T08:41:46;3.72;;;1.60;;
28431;SDS011;15664;51.302;7.744;2023-05-07T08:44:13;2.63;;;1.30;;
28431;SDS011;15664;51.302;7.744;2023-05-07T08:46:41;2.57;;;1.37;;
28431;SDS011;15664;51.302;7.744;2023-05-07T08:49:07;4.75;;;1.38;;
28431;SDS011;15664;51.302;7.744;2023-05-07T08:51:33;2.92;;;1.20;;
28431;SDS011;15664;51.302;7.744;2023-05-07T08:53:59;2.80;;;1.20;;
28431;SDS011;15664;51.302;7.744;2023-05-07T08:56:30;3.22;;;1.52;;
28431;SDS011;15664;51.302;7.744;2023-05-07T08:58:56;2.97;;;1.70;;
28431;SDS011;15664;51.302;7.744;2023-05-07T09:01:26;2.50;;;1.42;;
28431;SDS011;15664;51.302;7.744;2023-05-07T09:03:53;1.73;;;1.00;;
28431;SDS011;15664;51.302;7.744;2023-05-07T09:06:19;2.93;;;1.30;;
28431;SDS011;15664;51.302;7.744;2023-05-07T09:08:53;3.05;;;1.38;;
28431;SDS011;15664;51.302;7.744;2023-05-07T09:11:20;3.55;;;1.60;;
28431;SDS011;15664;51.302;7.744;2023-05-07T09:13:46;3.75;;;1.58;;
28431;SDS011;15664;51.302;7.744;2023-05-07T09:16:12;3.83;;;1.60;;
28431;SDS011;15664;51.302;7.744;2023-05-07T09:18:42;5.20;;;1.85;;
28431;SDS011;15664;51.302;7.744;2023-05-07T09:21:11;4.05;;;2.00;;
28431;SDS011;15664;51.302;7.744;2023-05-07T09:23:37;2.45;;;1.42;;
28431;SDS011;15664;51.302;7.744;2023-05-07T09:26:03;4.37;;;1.60;;
28431;SDS011;15664;51.302;7.744;2023-05-07T09:28:32;3.58;;;1.40;;
28431;SDS011;15664;51.302;7.744;2023-05-07T09:30:57;5.60;;;1.50;;
28431;SDS011;15664;51.302;7.744;2023-05-07T09:33:26;3.58;;;1.73;;
28431;SDS011;15664;51.302;7.744;2023-05-07T09:35:51;2.97;;;1.77;;
28431;SDS011;15664;51.302;7.744;2023-05-07T09:38:18;2.45;;;1.50;;
28431;SDS011;15664;51.302;7.744;2023-05-07T09:40:47;4.13;;;1.70;;
28431;SDS011;15664;51.302;7.744;2023-05-07T09:43:14;6.80;;;1.58;;
28431;SDS011;15664;51.302;7.744;2023-05-07T09:45:52;4.22;;;1.55;;
28431;SDS011;15664;51.302;7.744;2023-05-07T09:48:21;4.22;;;2.00;;
28431;SDS011;15664;51.302;7.744;2023-05-07T09:50:51;2.58;;;1.30;;
28431;SDS011;15664;51.302;7.744;2023-05-07T09:53:21;3.00;;;1.50;;
28431;SDS011;15664;51.302;7.744;2023-05-07T09:55:49;5.82;;;1.80;;
28431;SDS011;15664;51.302;7.744;2023-05-07T09:58:15;3.30;;;1.50;;
28431;SDS011;15664;51.302;7.744;2023-05-07T10:00:43;2.90;;;1.40;;
28431;SDS011;15664;51.302;7.744;2023-05-07T10:03:12;3.42;;;1.30;;
28431;SDS011;15664;51.302;7.744;2023-05-07T10:05:50;3.30;;;1.40;;
28431;SDS011;15664;51.302;7.744;2023-05-07T10:08:18;3.45;;;1.48;;
28431;SDS011;15664;51.302;7.744;2023-05-07T10:10:47;2.92;;;1.42;;
28431;SDS011;15664;51.302;7.744;2023-05-07T10:13:19;3.40;;;1.42;;
28431;SDS011;15664;51.302;7.744;2023-05-07T10:15:48;2.85;;;1.20;;
28431;SDS011;15664;51.302;7.744;2023-05-07T10:18:14;3.75;;;1.33;;
28431;SDS011;15664;51.302;7.744;2023-05-07T10:20:42;3.40;;;1.40;;
28431;SDS011;15664;51.302;7.744;2023-05-07T10:23:12;2.45;;;1.40;;
28431;SDS011;15664;51.302;7.744;2023-05-07T10:25:41;3.77;;;1.30;;
28431;SDS011;15664;51.302;7.744;2023-05-07T10:28:14;8.18;;;1.33;;
28431;SDS011;15664;51.302;7.744;2023-05-07T10:30:55;2.65;;;1.30;;
28431;SDS011;15664;51.302;7.744;2023-05-07T10:33:32;4.00;;;1.27;;
28431;SDS011;15664;51.302;7.744;2023-05-07T10:35:58;5.18;;;1.58;;
28431;SDS011;15664;51.302;7.744;2023-05-07T10:38:26;2.80;;;1.43;;
28431;SDS011;15664;51.302;7.744;2023-05-07T10:40:52;2.72;;;1.60;;
28431;SDS011;15664;51.302;7.744;2023-05-07T10:43:18;2.90;;;1.60;;
28431;SDS011;15664;51.302;7.744;2023-05-07T10:48:34;5.40;;;1.83;;
28431;SDS011;15664;51.302;7.744;2023-05-07T10:51:18;3.93;;;1.30;;
28431;SDS011;15664;51.302;7.744;2023-05-07T10:53:45;3.00;;;1.67;;
28431;SDS011;15664;51.302;7.744;2023-05-07T10:58:51;3.17;;;1.48;;
28431;SDS011;15664;51.302;7.744;2023-05-07T11:04:17;4.50;;;1.50;;
28431;SDS011;15664;51.302;7.744;2023-05-07T11:15:02;4.13;;;1.70;;
28431;SDS011;15664;51.302;7.744;2023-05-07T11:17:34;4.10;;;1.80;;
28431;SDS011;15664;51.302;7.744;2023-05-07T11:20:16;6.20;;;1.83;;
28431;SDS011;15664;51.302;7.744;2023-05-07T11:22:47;3.53;;;1.38;;
28431;SDS011;15664;51.302;7.744;2023-05-07T11:25:33;4.93;;;2.10;;
28431;SDS011;15664;51.302;7.744;2023-05-07T11:28:07;5.68;;;2.00;;
28431;SDS011;15664;51.302;7.744;2023-05-07T11:30:35;4.27;;;2.23;;
28431;SDS011;15664;51.302;7.744;2023-05-07T11:33:02;4.32;;;2.10;;
28431;SDS011;15664;51.302;7.744;2023-05-07T11:35:28;4.95;;;2.28;;
28431;SDS011;15664;51.302;7.744;2023-05-07T11:37:58;4.35;;;1.75;;
28431;SDS011;15664;51.302;7.744;2023-05-07T11:40:24;4.90;;;1.90;;
28431;SDS011;15664;51.302;7.744;2023-05-07T11:42:50;5.13;;;2.10;;
28431;SDS011;15664;51.302;7.744;2023-05-07T11:45:19;4.40;;;2.10;;
28431;SDS011;15664;51.302;7.744;2023-05-07T11:47:47;4.57;;;1.90;;
28431;SDS011;15664;51.302;7.744;2023-05-07T11:50:13;4.50;;;1.83;;
28431;SDS011;15664;51.302;7.744;2023-05-07T11:52:38;4.30;;;2.28;;
28431;SDS011;15664;51.302;7.744;2023-05-07T11:55:04;6.10;;;2.30;;
28431;SDS011;15664;51.302;7.744;2023-05-07T11:57:30;5.18;;;2.10;;
28431;SDS011;15664;51.302;7.744;2023-05-07T11:59:58;5.47;;;2.17;;
28431;SDS011;15664;51.302;7.744;2023-05-07T12:02:26;6.55;;;2.78;;
28431;SDS011;15664;51.302;7.744;2023-05-07T12:04:52;6.23;;;2.80;;
28431;SDS011;15664;51.302;7.744;2023-05-07T12:07:17;7.47;;;3.30;;
28431;SDS011;15664;51.302;7.744;2023-05-07T12:09:43;11.45;;;3.80;;
28431;SDS011;15664;51.302;7.744;2023-05-07T12:12:09;8.73;;;2.97;;
28431;SDS011;15664;51.302;7.744;2023-05-07T12:14:38;4.83;;;2.87;;
28431;SDS011;15664;51.302;7.744;2023-05-07T12:17:04;5.55;;;2.92;;
28431;SDS011;15664;51.302;7.744;2023-05-07T12:19:30;5.50;;;2.75;;
28431;SDS011;15664;51.302;7.744;2023-05-07T12:21:56;4.30;;;1.93;;
28431;SDS011;15664;51.302;7.744;2023-05-07T12:24:21;5.50;;;1.90;;
28431;SDS011;15664;51.302;7.744;2023-05-07T12:26:46;4.80;;;1.60;;
28431;SDS011;15664;51.302;7.744;2023-05-07T12:29:12;2.53;;;1.40;;
28431;SDS011;15664;51.302;7.744;2023-05-07T12:31:40;3.37;;;1.70;;
28431;SDS011;15664;51.302;7.744;2023-05-07T12:34:05;4.45;;;2.03;;
28431;SDS011;15664;51.302;7.744;2023-05-07T12:36:37;6.63;;;2.40;;
28431;SDS011;15664;51.302;7.744;2023-05-07T12:39:04;5.23;;;2.40;;
28431;SDS011;15664;51.302;7.744;2023-05-07T12:41:29;5.22;;;2.67;;
28431;SDS011;15664;51.302;7.744;2023-05-07T12:43:56;5.68;;;2.92;;
28431;SDS011;15664;51.302;7.744;2023-05-07T12:46:21;5.82;;;2.72;;
28431;SDS011;15664;51.302;7.744;2023-05-07T12:48:48;6.78;;;2.60;;
28431;SDS011;15664;51.302;7.744;2023-05-07T12:51:14;6.33;;;2.70;;
28431;SDS011;15664;51.302;7.744;2023-05-07T12:53:41;6.18;;;2.67;;
28431;SDS011;15664;51.302;7.744;2023-05-07T12:56:07;5.88;;;2.97;;
28431;SDS011;15664;51.302;7.744;2023-05-07T12:58:33;5.50;;;2.90;;
28431;SDS011;15664;51.302;7.744;2023-05-07T13:00:59;5.65;;;2.90;;
28431;SDS011;15664;51.302;7.744;2023-05-07T13:05:51;8.10;;;3.40;;
28431;SDS011;15664;51.302;7.744;2023-05-07T13:11:14;7.38;;;2.67;;
28431;SDS011;15664;51.302;7.744;2023-05-07T13:13:40;6.13;;;2.93;;
28431;SDS011;15664;51.302;7.744;2023-05-07T13:16:08;7.05;;;3.08;;
28431;SDS011;15664;51.302;7.744;2023-05-07T13:18:33;6.30;;;2.70;;
28431;SDS011;15664;51.302;7.744;2023-05-07T13:20:59;7.05;;;3.17;;
28431;SDS011;15664;51.302;7.744;2023-05-07T13:23:26;6.80;;;3.33;;
28431;SDS011;15664;51.302;7.744;2023-05-07T13:25:51;6.83;;;3.10;;
28431;SDS011;15664;51.302;7.744;2023-05-07T13:28:19;5.70;;;2.63;;
28431;SDS011;15664;51.302;7.744;2023-05-07T13:30:46;7.50;;;2.97;;
28431;SDS011;15664;51.302;7.744;2023-05-07T13:33:11;5.93;;;3.00;;
28431;SDS011;15664;51.302;7.744;2023-05-07T13:35:36;7.50;;;2.90;;
28431;SDS011;15664;51.302;7.744;2023-05-07T13:38:03;5.38;;;2.80;;
28431;SDS011;15664;51.302;7.744;2023-05-07T13:40:28;6.13;;;3.13;;
28431;SDS011;15664;51.302;7.744;2023-05-07T13:42:53;7.57;;;3.03;;
28431;SDS011;15664;51.302;7.744;2023-05-07T13:45:18;5.70;;;3.20;;
28431;SDS011;15664;51.302;7.744;2023-05-07T13:47:44;6.35;;;2.95;;
28431;SDS011;15664;51.302;7.744;2023-05-07T13:50:10;7.60;;;3.10;;
28431;SDS011;15664;51.302;7.744;2023-05-07T13:52:36;6.80;;;3.50;;
28431;SDS011;15664;51.302;7.744;2023-05-07T13:55:02;7.32;;;3.10;;
28431;SDS011;15664;51.302;7.744;2023-05-07T13:57:28;6.00;;;3.10;;
28431;SDS011;15664;51.302;7.744;2023-05-07T13:59:53;6.95;;;3.15;;
28431;SDS011;15664;51.302;7.744;2023-05-07T14:02:18;6.10;;;3.27;;
28431;SDS011;15664;51.302;7.744;2023-05-07T14:04:44;6.23;;;3.27;;
28431;SDS011;15664;51.302;7.744;2023-05-07T14:07:10;6.10;;;3.50;;
28431;SDS011;15664;51.302;7.744;2023-05-07T14:09:35;8.80;;;3.43;;
28431;SDS011;15664;51.302;7.744;2023-05-07T14:12:00;5.90;;;3.30;;
28431;SDS011;15664;51.302;7.744;2023-05-07T14:14:26;7.13;;;3.90;;
28431;SDS011;15664;51.302;7.744;2023-05-07T14:16:52;6.60;;;3.53;;
28431;SDS011;15664;51.302;7.744;2023-05-07T14:19:17;8.00;;;3.08;;
28431;SDS011;15664;51.302;7.744;2023-05-07T14:21:42;6.23;;;2.90;;
28431;SDS011;15664;51.302;7.744;2023-05-07T14:24:08;5.83;;;2.50;;
28431;SDS011;15664;51.302;7.744;2023-05-07T14:26:33;4.80;;;1.97;;
28431;SDS011;15664;51.302;7.744;2023-05-07T14:28:58;5.27;;;2.37;;
28431;SDS011;15664;51.302;7.744;2023-05-07T14:31:24;6.00;;;2.30;;
28431;SDS011;15664;51.302;7.744;2023-05-07T14:33:49;5.03;;;2.50;;
28431;SDS011;15664;51.302;7.744;2023-05-07T14:36:15;4.33;;;2.07;;
28431;SDS011;15664;51.302;7.744;2023-05-07T14:38:41;5.38;;;2.33;;
28431;SDS011;15664;51.302;7.744;2023-05-07T14:41:06;4.13;;;2.07;;
28431;SDS011;15664;51.302;7.744;2023-05-07T14:43:31;6.70;;;2.20;;
28431;SDS011;15664;51.302;7.744;2023-05-07T14:45:57;3.80;;;2.00;;
28431;SDS011;15664;51.302;7.744;2023-05-07T14:48:22;5.07;;;2.20;;
28431;SDS011;15664;51.302;7.744;2023-05-07T14:50:47;4.93;;;2.10;;
28431;SDS011;15664;51.302;7.744;2023-05-07T14:53:13;4.70;;;2.27;;
28431;SDS011;15664;51.302;7.744;2023-05-07T14:55:38;5.07;;;2.20;;
28431;SDS011;15664;51.302;7.744;2023-05-07T14:58:03;4.60;;;2.43;;
28431;SDS011;15664;51.302;7.744;2023-05-07T15:00:29;5.33;;;2.10;;
28431;SDS011;15664;51.302;7.744;2023-05-07T15:02:55;5.18;;;2.33;;
28431;SDS011;15664;51.302;7.744;2023-05-07T15:05:26;4.75;;;2.42;;
28431;SDS011;15664;51.302;7.744;2023-05-07T15:07:51;5.63;;;2.30;;